Time;durP1;ratioP1;P1;durP2;ratioP2;P2;SDS_P1;SDS_P2;PMS_P1;PMS_P2;Temp;Humidity;BMP_temperature;BMP_pressure;BME280_temperature;BME280_humidity;BME280_pressure;Samples;Min_cycle;Max_cycle;Signal;HPM_P1;HPM_P2
2022/04/30 00:00:10;;;;;;;12.00;7.00;;;;;;;;;;5052170;28;20021;-46
2022/04/30 00:02:36;;;;;;;9.27;6.07;;;;;;;;;;5053599;28;20025;-44
2022/04/30 00:05:02;;;;;;;10.60;5.95;;;;;;;;;;5056209;28;20485;-46
2022/04/30 00:07:27;;;;;;;8.57;6.10;;;;;;;;;;5056461;28;20104;-44
2022/04/30 00:09:53;;;;;;;9.38;5.93;;;;;;;;;;5056186;28;20021;-46
2022/04/30 00:12:18;;;;;;;9.32;5.70;;;;;;;;;;5056122;28;20035;-45
2022/04/30 00:14:49;;;;;;;10.82;6.65;;;;;;;;;;5056133;28;20029;-43
2022/04/30 00:17:14;;;;;;;;;;;;;;;;;;5055906;28;20025;-45
2022/04/30 00:19:40;;;;;;;9.07;5.22;;;;;;;;;;5055993;28;19919;-45
2022/04/30 00:22:06;;;;;;;11.18;6.10;;;;;;;;;;5055979;28;20021;-44
2022/04/30 00:24:31;;;;;;;8.57;5.82;;;;;;;;;;5055853;28;20030;-46
2022/04/30 00:26:59;;;;;;;9.52;6.22;;;;;;;;;;5055804;28;20021;-45
2022/04/30 00:29:26;;;;;;;9.80;6.25;;;;;;;;;;5056130;28;20220;-46
2022/04/30 00:31:52;;;;;;;8.45;5.70;;;;;;;;;;5056042;28;20071;-44
2022/04/30 00:34:18;;;;;;;11.18;5.68;;;;;;;;;;5056242;28;20337;-46
2022/04/30 00:36:43;;;;;;;11.50;6.75;;;;;;;;;;5055627;28;20108;-46
2022/04/30 00:39:09;;;;;;;9.00;5.72;;;;;;;;;;5037750;28;20206;-43
2022/04/30 00:41:34;;;;;;;8.85;5.40;;;;;;;;;;5055778;28;20520;-45
2022/04/30 00:44:01;;;;;;;12.18;6.80;;;;;;;;;;5055537;28;20385;-47
2022/04/30 00:46:27;;;;;;;15.25;7.00;;;;;;;;;;5055820;28;20151;-43
2022/04/30 00:48:53;;;;;;;14.43;7.45;;;;;;;;;;5055435;28;20477;-45
2022/04/30 00:51:22;;;;;;;14.55;6.97;;;;;;;;;;5055232;28;20132;-44
2022/04/30 00:53:50;;;;;;;12.65;6.38;;;;;;;;;;5055660;28;20044;-40
2022/04/30 00:56:22;;;;;;;11.77;7.13;;;;;;;;;;5055504;28;20479;-41
2022/04/30 00:58:49;;;;;;;9.73;6.13;;;;;;;;;;5055521;28;20021;-39
2022/04/30 01:01:14;;;;;;;12.63;7.32;;;;;;;;;;5055279;28;20025;-39
2022/04/30 01:03:40;;;;;;;8.82;6.05;;;;;;;;;;5055469;28;20029;-49
2022/04/30 01:06:07;;;;;;;11.13;6.57;;;;;;;;;;5055331;28;20476;-47
2022/04/30 01:08:33;;;;;;;10.30;6.72;;;;;;;;;;5055349;28;20040;-46
2022/04/30 01:11:00;;;;;;;8.23;6.05;;;;;;;;;;5054945;28;20025;-47
2022/04/30 01:13:28;;;;;;;11.75;6.63;;;;;;;;;;5054594;28;20083;-46
2022/04/30 01:15:58;;;;;;;10.30;5.82;;;;;;;;;;5054956;28;20108;-44
2022/04/30 01:18:26;;;;;;;8.00;5.60;;;;;;;;;;5055155;28;20056;-46
2022/04/30 01:20:55;;;;;;;11.82;6.45;;;;;;;;;;5055104;28;20423;-47
2022/04/30 01:23:21;;;;;;;9.80;6.38;;;;;;;;;;5054823;28;20472;-47
2022/04/30 01:25:48;;;;;;;8.25;6.45;;;;;;;;;;5054714;28;20032;-47
2022/04/30 01:28:14;;;;;;;10.55;6.60;;;;;;;;;;5054934;28;20053;-47
2022/04/30 01:30:40;;;;;;;8.88;6.20;;;;;;;;;;5054950;28;20028;-46
2022/04/30 01:38:33;;;;;;;4.40;3.33;;;;;;;;;;5054816;28;20027;-43
2022/04/30 01:40:59;;;;;;;2.88;2.60;;;;;;;;;;5054541;28;20104;-45
2022/04/30 01:43:25;;;;;;;5.15;2.85;;;;;;;;;;5054696;28;20079;-46
2022/04/30 01:45:52;;;;;;;6.88;5.38;;;;;;;;;;5054283;28;20079;-45
2022/04/30 01:48:19;;;;;;;8.68;4.93;;;;;;;;;;5054610;28;20035;-45
2022/04/30 01:50:45;;;;;;;4.43;2.45;;;;;;;;;;5054085;28;20098;-45
2022/04/30 01:53:10;;;;;;;9.02;6.53;;;;;;;;;;5054496;28;20021;-43
2022/04/30 01:55:36;;;;;;;9.25;6.40;;;;;;;;;;5054210;28;20025;-47
2022/04/30 01:58:03;;;;;;;11.85;6.72;;;;;;;;;;5054183;28;20021;-45
2022/04/30 02:00:29;;;;;;;9.68;6.85;;;;;;;;;;5053997;28;20025;-48
2022/04/30 02:02:59;;;;;;;12.32;7.05;;;;;;;;;;5054332;28;20025;-46
2022/04/30 02:05:26;;;;;;;13.43;6.85;;;;;;;;;;5053968;28;20057;-47
2022/04/30 02:08:17;;;;;;;13.48;6.95;;;;;;;;;;5054182;28;20033;-46
2022/04/30 02:10:42;;;;;;;9.98;6.13;;;;;;;;;;5044470;28;20100;-45
2022/04/30 02:13:10;;;;;;;10.95;6.57;;;;;;;;;;5053873;28;20108;-44
2022/04/30 02:15:40;;;;;;;9.15;6.80;;;;;;;;;;5053771;28;20029;-46
2022/04/30 02:18:10;;;;;;;11.60;7.25;;;;;;;;;;5053860;28;20029;-43
2022/04/30 02:20:42;;;;;;;8.80;6.53;;;;;;;;;;5053940;28;20032;-46
2022/04/30 02:23:09;;;;;;;11.70;6.85;;;;;;;;;;5053734;28;20249;-44
2022/04/30 02:25:35;;;;;;;9.98;7.18;;;;;;;;;;5053006;28;20119;-46
2022/04/30 02:28:04;;;;;;;9.88;6.20;;;;;;;;;;5053470;28;20028;-47
2022/04/30 02:30:31;;;;;;;10.02;6.68;;;;;;;;;;5053816;28;20100;-46
2022/04/30 02:33:08;;;;;;;10.90;7.43;;;;;;;;;;5053450;28;20021;-45
2022/04/30 02:35:35;;;;;;;9.90;7.28;;;;;;;;;;5053685;28;20017;-44
2022/04/30 02:38:04;;;;;;;9.88;7.25;;;;;;;;;;5053626;28;20095;-46
2022/04/30 02:40:32;;;;;;;7.82;6.13;;;;;;;;;;5053613;28;20029;-44
2022/04/30 02:43:06;;;;;;;10.85;7.57;;;;;;;;;;5053155;28;20427;-44
2022/04/30 02:45:33;;;;;;;10.43;6.95;;;;;;;;;;5053196;28;20079;-46
2022/04/30 02:47:58;;;;;;;8.75;6.38;;;;;;;;;;5053465;28;20017;-44
2022/04/30 02:50:24;;;;;;;10.75;6.88;;;;;;;;;;5052906;28;20045;-46
2022/04/30 02:52:51;;;;;;;11.65;7.28;;;;;;;;;;5053100;28;20103;-44
2022/04/30 02:55:16;;;;;;;10.77;6.53;;;;;;;;;;5052967;28;20074;-46
2022/04/30 03:00:40;;;;;;;8.07;5.35;;;;;;;;;;5053269;28;20036;-46
2022/04/30 03:03:07;;;;;;;7.05;4.70;;;;;;;;;;5052903;28;20492;-46
2022/04/30 03:05:34;;;;;;;8.70;5.10;;;;;;;;;;5053044;28;20041;-45
2022/04/30 03:08:04;;;;;;;6.97;4.85;;;;;;;;;;5052851;28;20070;-45
2022/04/30 03:10:30;;;;;;;5.57;4.00;;;;;;;;;;5052823;28;20075;-45
2022/04/30 03:12:55;;;;;;;10.18;6.85;;;;;;;;;;5035045;28;20041;-45
2022/04/30 03:15:22;;;;;;;8.52;6.70;;;;;;;;;;5034856;28;20033;-46
2022/04/30 03:23:18;;;;;;;13.50;8.15;;;;;;;;;;5052934;28;20051;-48
2022/04/30 03:25:44;;;;;;;19.92;8.13;;;;;;;;;;5052652;28;20466;-44
2022/04/30 03:28:10;;;;;;;11.57;7.78;;;;;;;;;;5052846;28;20025;-44
2022/04/30 03:30:36;;;;;;;9.05;4.60;;;;;;;;;;5052732;28;20423;-44
2022/04/30 03:33:01;;;;;;;8.25;4.22;;;;;;;;;;5052409;28;20028;-44
2022/04/30 03:35:27;;;;;;;3.03;2.38;;;;;;;;;;5052418;28;20029;-45
2022/04/30 03:37:52;;;;;;;5.72;3.38;;;;;;;;;;5052375;28;20271;-44
2022/04/30 03:40:18;;;;;;;7.00;4.85;;;;;;;;;;5052886;28;20033;-45
2022/04/30 03:42:43;;;;;;;8.85;5.70;;;;;;;;;;5052336;28;20465;-43
2022/04/30 03:45:09;;;;;;;6.97;5.18;;;;;;;;;;5052320;28;20111;-46
2022/04/30 03:47:37;;;;;;;11.88;6.30;;;;;;;;;;5052241;28;20533;-44
2022/04/30 03:50:04;;;;;;;16.20;7.03;;;;;;;;;;5052275;28;20045;-44
2022/04/30 03:52:30;;;;;;;11.27;7.53;;;;;;;;;;5052476;28;20021;-48
2022/04/30 03:54:56;;;;;;;12.90;7.72;;;;;;;;;;5052391;28;20178;-45
2022/04/30 03:57:21;;;;;;;14.98;8.43;;;;;;;;;;5052255;28;20053;-47
2022/04/30 03:59:47;;;;;;;13.10;7.45;;;;;;;;;;5052219;28;20495;-45
2022/04/30 04:02:13;;;;;;;13.45;7.95;;;;;;;;;;5052086;28;20056;-46
2022/04/30 04:04:38;;;;;;;10.05;7.50;;;;;;;;;;5052030;28;20031;-46
2022/04/30 04:07:04;;;;;;;12.32;7.85;;;;;;;;;;5052118;28;20072;-46
2022/04/30 04:09:29;;;;;;;11.43;7.57;;;;;;;;;;5052096;28;20017;-46
2022/04/30 04:11:54;;;;;;;11.70;7.38;;;;;;;;;;5052342;28;20036;-42
2022/04/30 04:19:48;;;;;;;4.47;3.75;;;;;;;;;;5052566;28;20047;-45
2022/04/30 04:22:13;;;;;;;4.63;3.22;;;;;;;;;;5051763;28;20469;-48
2022/04/30 04:27:23;;;;;;;6.18;3.55;;;;;;;;;;5052403;28;20067;-47
2022/04/30 04:29:48;;;;;;;5.28;3.30;;;;;;;;;;5051868;28;20052;-50
2022/04/30 04:32:14;;;;;;;3.42;2.38;;;;;;;;;;5052136;28;20029;-45
2022/04/30 04:34:39;;;;;;;8.23;4.80;;;;;;;;;;5051914;28;20025;-49
2022/04/30 04:37:05;;;;;;;3.05;2.72;;;;;;;;;;5051810;28;20029;-48
2022/04/30 04:39:30;;;;;;;5.93;3.97;;;;;;;;;;5052179;28;20021;-50
2022/04/30 04:41:56;;;;;;;5.28;4.60;;;;;;;;;;5033990;28;20070;-48
2022/04/30 04:44:21;;;;;;;7.28;5.30;;;;;;;;;;5051665;28;20033;-48
2022/04/30 04:46:47;;;;;;;13.73;6.07;;;;;;;;;;5051698;28;20493;-49
2022/04/30 04:49:13;;;;;;;9.07;6.95;;;;;;;;;;5053761;28;20032;-50
2022/04/30 04:51:39;;;;;;;14.55;9.38;;;;;;;;;;5055221;28;20045;-51
2022/04/30 04:54:04;;;;;;;11.88;7.85;;;;;;;;;;5055372;28;20409;-48
2022/04/30 04:56:30;;;;;;;5.63;3.90;;;;;;;;;;5055643;28;20094;-48
2022/04/30 04:58:56;;;;;;;7.25;5.47;;;;;;;;;;5055252;28;20036;-46
2022/04/30 05:01:22;;;;;;;6.80;4.57;;;;;;;;;;5055304;28;20037;-46
2022/04/30 05:03:47;;;;;;;6.85;5.25;;;;;;;;;;5055232;28;20483;-50
2022/04/30 05:06:13;;;;;;;8.52;6.00;;;;;;;;;;5055119;28;20082;-45
2022/04/30 05:08:38;;;;;;;6.43;5.43;;;;;;;;;;5055380;28;20033;-43
2022/04/30 05:11:04;;;;;;;13.00;6.85;;;;;;;;;;5055314;28;20043;-45
2022/04/30 05:13:29;;;;;;;11.95;7.85;;;;;;;;;;5054843;28;20025;-43
2022/04/30 05:15:55;;;;;;;10.43;5.55;;;;;;;;;;5054977;28;20120;-45
2022/04/30 05:18:21;;;;;;;10.23;6.45;;;;;;;;;;5054243;28;20029;-44
2022/04/30 05:20:46;;;;;;;14.45;7.68;;;;;;;;;;5054879;28;20029;-44
2022/04/30 05:23:12;;;;;;;16.38;8.85;;;;;;;;;;5054774;28;20021;-46
2022/04/30 05:25:40;;;;;;;6.55;5.38;;;;;;;;;;5054968;28;20043;-49
2022/04/30 05:28:07;;;;;;;8.90;7.45;;;;;;;;;;5054785;28;20036;-46
2022/04/30 05:30:32;;;;;;;8.98;5.88;;;;;;;;;;5054760;28;20103;-46
2022/04/30 05:32:58;;;;;;;8.48;6.13;;;;;;;;;;5054533;28;20053;-47
2022/04/30 05:35:24;;;;;;;6.45;5.18;;;;;;;;;;5054654;28;20029;-45
2022/04/30 05:37:49;;;;;;;11.77;7.18;;;;;;;;;;5054508;28;20025;-47
2022/04/30 05:40:14;;;;;;;7.60;6.25;;;;;;;;;;5054549;28;20036;-50
2022/04/30 05:42:40;;;;;;;8.13;5.35;;;;;;;;;;5054693;28;20381;-41
2022/04/30 05:45:06;;;;;;;5.45;4.22;;;;;;;;;;5054602;28;20059;-47
2022/04/30 05:47:31;;;;;;;6.60;5.00;;;;;;;;;;5054366;28;20469;-45
2022/04/30 05:49:57;;;;;;;4.13;3.40;;;;;;;;;;5054313;28;20044;-45
2022/04/30 05:52:23;;;;;;;8.23;6.35;;;;;;;;;;5054610;28;20033;-45
2022/04/30 05:54:49;;;;;;;9.48;6.15;;;;;;;;;;5054449;28;20453;-42
2022/04/30 05:57:14;;;;;;;11.25;5.85;;;;;;;;;;5054217;28;20079;-45
2022/04/30 05:59:39;;;;;;;14.93;6.32;;;;;;;;;;5053248;28;20025;-47
2022/04/30 06:02:05;;;;;;;7.93;5.50;;;;;;;;;;5053723;28;20021;-49
2022/04/30 06:04:30;;;;;;;8.32;4.95;;;;;;;;;;5053957;28;20025;-41
2022/04/30 06:06:58;;;;;;;7.38;6.38;;;;;;;;;;5054119;28;20081;-46
2022/04/30 06:09:24;;;;;;;8.20;4.97;;;;;;;;;;5054162;28;20025;-43
2022/04/30 06:11:49;;;;;;;6.97;5.38;;;;;;;;;;5053890;28;20381;-45
2022/04/30 06:14:15;;;;;;;6.05;4.15;;;;;;;;;;5035986;28;20144;-50
2022/04/30 06:16:40;;;;;;;4.55;3.65;;;;;;;;;;5053882;28;20017;-45
2022/04/30 06:19:06;;;;;;;6.07;5.25;;;;;;;;;;5053731;28;20122;-46
2022/04/30 06:21:31;;;;;;;12.35;5.65;;;;;;;;;;5054051;28;20028;-44
2022/04/30 06:23:56;;;;;;;6.57;4.80;;;;;;;;;;5053698;28;20021;-43
2022/04/30 06:26:22;;;;;;;6.40;5.13;;;;;;;;;;5052344;28;20036;-46
2022/04/30 06:28:47;;;;;;;6.47;4.20;;;;;;;;;;5053051;28;20127;-52
2022/04/30 06:31:13;;;;;;;10.77;5.32;;;;;;;;;;5053334;28;20031;-44
2022/04/30 06:33:39;;;;;;;5.10;4.22;;;;;;;;;;5053729;28;20025;-49
2022/04/30 06:36:04;;;;;;;6.22;4.88;;;;;;;;;;5053594;28;20455;-43
2022/04/30 06:38:31;;;;;;;3.60;2.80;;;;;;;;;;5053148;28;20100;-40
2022/04/30 06:40:56;;;;;;;4.88;4.03;;;;;;;;;;5053145;28;20032;-39
2022/04/30 06:43:22;;;;;;;6.70;5.38;;;;;;;;;;5053155;28;20021;-46
2022/04/30 06:45:47;;;;;;;6.40;3.35;;;;;;;;;;5053006;28;20040;-45
2022/04/30 06:48:13;;;;;;;5.72;3.88;;;;;;;;;;5052802;28;20104;-40
2022/04/30 06:50:38;;;;;;;4.78;3.53;;;;;;;;;;5052058;28;20064;-42
2022/04/30 06:58:41;;;;;;;3.53;2.90;;;;;;;;;;5053232;28;20522;-48
2022/04/30 07:03:55;;;;;;;3.72;2.78;;;;;;;;;;5053085;28;20031;-49
2022/04/30 07:06:21;;;;;;;5.35;3.47;;;;;;;;;;5052858;28;20451;-51
2022/04/30 07:08:46;;;;;;;2.97;2.70;;;;;;;;;;5053005;28;20128;-45
2022/04/30 07:11:12;;;;;;;5.32;3.45;;;;;;;;;;5052377;28;20071;-46
2022/04/30 07:13:37;;;;;;;5.03;3.67;;;;;;;;;;5052580;28;20037;-48
2022/04/30 07:16:04;;;;;;;5.78;3.00;;;;;;;;;;5052142;28;20029;-46
2022/04/30 07:18:30;;;;;;;3.80;2.83;;;;;;;;;;5052685;28;20070;-46
2022/04/30 07:20:55;;;;;;;3.10;2.80;;;;;;;;;;5051940;28;20127;-45
2022/04/30 07:23:21;;;;;;;5.22;3.30;;;;;;;;;;5052532;28;20175;-44
2022/04/30 07:25:47;;;;;;;9.88;4.88;;;;;;;;;;5052746;28;20064;-43
2022/04/30 07:28:13;;;;;;;3.25;2.65;;;;;;;;;;5052709;28;20052;-50
2022/04/30 07:30:38;;;;;;;5.43;4.10;;;;;;;;;;5052437;28;20582;-50
2022/04/30 07:33:04;;;;;;;5.18;3.25;;;;;;;;;;5052216;28;20049;-42
2022/04/30 07:35:29;;;;;;;3.03;2.72;;;;;;;;;;5052415;28;20029;-50
2022/04/30 07:37:54;;;;;;;6.90;4.00;;;;;;;;;;5051381;28;20447;-45
2022/04/30 07:40:20;;;;;;;4.22;2.65;;;;;;;;;;5052003;28;20025;-45
2022/04/30 07:42:45;;;;;;;3.60;3.25;;;;;;;;;;5050369;28;20107;-42
2022/04/30 07:45:11;;;;;;;2.28;2.08;;;;;;;;;;5050946;28;20033;-43
2022/04/30 07:47:36;;;;;;;4.13;2.95;;;;;;;;;;5051540;28;20053;-45
2022/04/30 07:50:02;;;;;;;3.13;2.03;;;;;;;;;;5051158;28;20481;-47
2022/04/30 07:52:28;;;;;;;14.13;2.38;;;;;;;;;;5051572;28;20033;-48
2022/04/30 07:54:54;;;;;;;3.53;2.00;;;;;;;;;;5052432;28;20120;-43
2022/04/30 07:57:20;;;;;;;2.45;2.03;;;;;;;;;;5052483;28;20021;-46
2022/04/30 07:59:46;;;;;;;2.72;1.90;;;;;;;;;;5052528;28;20377;-47
2022/04/30 08:02:12;;;;;;;1.92;1.83;;;;;;;;;;5052501;28;20043;-48
2022/04/30 08:04:37;;;;;;;2.42;2.15;;;;;;;;;;5052094;28;20025;-46
2022/04/30 08:07:02;;;;;;;6.30;3.00;;;;;;;;;;5052506;28;20112;-51
2022/04/30 08:09:28;;;;;;;4.82;2.03;;;;;;;;;;5052181;28;20369;-51
2022/04/30 08:11:53;;;;;;;1.88;1.70;;;;;;;;;;5052347;28;20029;-45
2022/04/30 08:14:19;;;;;;;6.78;2.90;;;;;;;;;;5052126;28;20171;-43
2022/04/30 08:16:44;;;;;;;12.18;3.20;;;;;;;;;;5052317;28;20167;-44
2022/04/30 08:19:10;;;;;;;2.35;2.13;;;;;;;;;;5052113;28;20489;-52
2022/04/30 08:21:35;;;;;;;2.30;2.10;;;;;;;;;;5052066;28;20039;-48
2022/04/30 08:24:01;;;;;;;2.13;1.92;;;;;;;;;;5053768;28;20025;-43
2022/04/30 08:26:26;;;;;;;2.22;1.55;;;;;;;;;;5056174;28;20079;-48
2022/04/30 08:28:51;;;;;;;3.45;2.45;;;;;;;;;;5055901;28;20372;-42
2022/04/30 08:31:18;;;;;;;2.40;1.90;;;;;;;;;;5055834;28;20029;-47
2022/04/30 08:33:43;;;;;;;3.50;2.05;;;;;;;;;;5056107;28;20079;-45
2022/04/30 08:36:10;;;;;;;1.67;1.58;;;;;;;;;;5055842;28;20420;-47
2022/04/30 08:38:35;;;;;;;3.40;2.30;;;;;;;;;;5055524;28;20037;-47
2022/04/30 08:41:01;;;;;;;2.60;2.28;;;;;;;;;;5037856;28;20029;-49
2022/04/30 08:43:28;;;;;;;2.30;2.10;;;;;;;;;;5055892;28;20116;-47
2022/04/30 08:45:54;;;;;;;2.08;1.90;;;;;;;;;;5055553;28;20029;-46
2022/04/30 08:48:19;;;;;;;2.40;2.10;;;;;;;;;;5055611;28;20429;-48
2022/04/30 08:50:47;;;;;;;2.67;2.22;;;;;;;;;;5055482;28;20052;-49
2022/04/30 08:53:14;;;;;;;3.92;2.50;;;;;;;;;;5055415;28;20496;-45
2022/04/30 08:55:40;;;;;;;2.70;2.50;;;;;;;;;;5055685;28;20025;-52
2022/04/30 08:58:05;;;;;;;2.20;1.63;;;;;;;;;;5055369;28;20029;-47
2022/04/30 09:00:39;;;;;;;5.47;3.17;;;;;;;;;;5055530;28;20017;-45
2022/04/30 09:03:05;;;;;;;2.53;2.33;;;;;;;;;;5055339;28;20021;-45
2022/04/30 09:05:36;;;;;;;4.68;2.00;;;;;;;;;;5055432;28;20029;-46
2022/04/30 09:08:03;;;;;;;4.55;2.72;;;;;;;;;;5055411;28;20036;-45
2022/04/30 09:10:34;;;;;;;1.98;1.80;;;;;;;;;;5055202;28;20025;-52
2022/04/30 09:13:14;;;;;;;1.83;1.67;;;;;;;;;;5055178;28;20368;-47
2022/04/30 09:15:44;;;;;;;2.53;1.98;;;;;;;;;;5055319;28;20068;-49
2022/04/30 09:18:10;;;;;;;;;;;;;;;;;;5055985;28;20420;-52
2022/04/30 09:20:42;;;;;;;2.67;1.90;;;;;;;;;;5055223;28;19935;-44
2022/04/30 09:23:10;;;;;;;2.50;1.90;;;;;;;;;;5054630;28;20025;-41
2022/04/30 09:25:35;;;;;;;4.15;2.58;;;;;;;;;;5054768;28;20469;-50
2022/04/30 09:28:01;;;;;;;1.77;1.67;;;;;;;;;;5055070;28;20041;-50
2022/04/30 09:30:32;;;;;;;3.05;1.80;;;;;;;;;;5054904;28;20028;-48
2022/04/30 09:33:05;;;;;;;2.60;1.95;;;;;;;;;;5054942;28;20111;-46
2022/04/30 09:38:18;;;;;;;1.55;1.40;;;;;;;;;;5054970;28;20083;-46
2022/04/30 09:40:57;;;;;;;2.95;2.60;;;;;;;;;;5055155;28;20029;-47
2022/04/30 09:43:36;;;;;;;3.28;2.25;;;;;;;;;;5054539;28;20028;-44
2022/04/30 09:46:04;;;;;;;3.13;1.80;;;;;;;;;;5054585;28;20083;-44
2022/04/30 09:54:00;;;;;;;2.05;1.85;;;;;;;;;;5054399;28;20495;-46
2022/04/30 09:56:58;;;;;;;2.72;2.38;;;;;;;;;;5054236;28;20428;-51
2022/04/30 09:59:25;;;;;;;2.45;1.70;;;;;;;;;;5052893;28;20028;-45
2022/04/30 10:01:53;;;;;;;3.05;1.88;;;;;;;;;;5054475;28;20095;-49
2022/04/30 10:04:18;;;;;;;3.75;2.78;;;;;;;;;;5036192;28;20376;-48
2022/04/30 10:06:49;;;;;;;2.80;2.20;;;;;;;;;;5054006;28;20033;-46
2022/04/30 10:09:17;;;;;;;2.33;1.90;;;;;;;;;;5054044;28;20465;-46
2022/04/30 10:12:20;;;;;;;3.60;2.13;;;;;;;;;;5054157;28;20366;-48
2022/04/30 10:15:07;;;;;;;2.20;1.98;;;;;;;;;;5054162;28;20409;-46
2022/04/30 10:17:36;;;;;;;3.65;1.75;;;;;;;;;;5053522;28;20110;-47
2022/04/30 10:20:12;;;;;;;1.95;1.70;;;;;;;;;;5053857;28;20107;-46
2022/04/30 10:22:50;;;;;;;2.05;1.90;;;;;;;;;;5053985;28;20070;-43
2022/04/30 10:25:16;;;;;;;2.05;1.90;;;;;;;;;;5053831;28;20171;-45
2022/04/30 10:27:45;;;;;;;3.85;2.20;;;;;;;;;;5053912;28;20464;-48
2022/04/30 10:30:27;;;;;;;2.90;2.17;;;;;;;;;;5053901;28;20074;-48
2022/04/30 10:33:01;;;;;;;2.17;2.00;;;;;;;;;;5053817;28;20273;-51
2022/04/30 10:35:36;;;;;;;2.38;1.80;;;;;;;;;;5053465;28;20555;-47
2022/04/30 10:38:09;;;;;;;2.80;2.60;;;;;;;;;;5053589;28;20070;-46
2022/04/30 10:40:51;;;;;;;2.75;1.90;;;;;;;;;;5053334;28;20107;-48
2022/04/30 10:43:32;;;;;;;4.38;2.10;;;;;;;;;;5053403;28;20071;-49
2022/04/30 10:45:58;;;;;;;1.55;1.42;;;;;;;;;;5052772;28;20438;-45
2022/04/30 10:48:25;;;;;;;1.70;1.48;;;;;;;;;;5053283;28;20086;-48
2022/04/30 10:51:04;;;;;;;3.10;1.95;;;;;;;;;;5053143;28;20064;-46
2022/04/30 10:53:30;;;;;;;1.63;1.53;;;;;;;;;;5053567;28;20041;-44
2022/04/30 10:55:55;;;;;;;2.17;1.40;;;;;;;;;;5053370;28;20031;-45
2022/04/30 10:58:22;;;;;;;2.53;1.48;;;;;;;;;;5052890;28;20047;-52
2022/04/30 11:00:48;;;;;;;2.60;1.70;;;;;;;;;;5052981;28;20021;-49
2022/04/30 11:03:13;;;;;;;1.80;1.60;;;;;;;;;;5052999;28;20587;-48
2022/04/30 11:05:41;;;;;;;3.85;1.70;;;;;;;;;;5052838;28;20033;-45
2022/04/30 11:08:07;;;;;;;1.90;1.50;;;;;;;;;;5053171;28;20032;-44
2022/04/30 11:10:33;;;;;;;1.85;1.75;;;;;;;;;;5053084;28;20025;-47
2022/04/30 11:13:07;;;;;;;2.22;1.48;;;;;;;;;;5053146;28;20025;-50
2022/04/30 11:15:33;;;;;;;1.88;1.33;;;;;;;;;;5052655;28;20078;-47
2022/04/30 11:18:00;;;;;;;3.33;1.75;;;;;;;;;;5053059;28;20033;-46
2022/04/30 11:20:26;;;;;;;4.88;1.77;;;;;;;;;;5052959;28;20025;-45
2022/04/30 11:22:53;;;;;;;2.75;2.03;;;;;;;;;;5034613;28;20104;-49
2022/04/30 11:25:19;;;;;;;2.30;2.10;;;;;;;;;;5052485;28;20511;-43
2022/04/30 11:27:44;;;;;;;1.65;1.55;;;;;;;;;;5052903;28;20064;-44
2022/04/30 11:30:10;;;;;;;1.80;1.30;;;;;;;;;;5052475;28;20021;-43
2022/04/30 11:32:47;;;;;;;1.60;1.50;;;;;;;;;;5052576;28;20091;-44
2022/04/30 11:35:12;;;;;;;3.85;2.80;;;;;;;;;;5052775;28;20040;-48
2022/04/30 11:37:42;;;;;;;1.52;1.42;;;;;;;;;;5052454;28;20025;-45
2022/04/30 11:40:09;;;;;;;2.22;2.03;;;;;;;;;;5052696;28;20032;-46
2022/04/30 11:42:35;;;;;;;2.03;1.92;;;;;;;;;;5034428;28;20041;-49
2022/04/30 11:45:00;;;;;;;2.22;1.90;;;;;;;;;;5052278;28;20025;-46
2022/04/30 11:47:27;;;;;;;2.63;1.85;;;;;;;;;;5034550;28;20028;-48
2022/04/30 11:50:07;;;;;;;4.25;1.50;;;;;;;;;;5052563;28;20056;-41
2022/04/30 11:52:33;;;;;;;3.03;1.88;;;;;;;;;;5052581;28;20064;-48
2022/04/30 11:55:02;;;;;;;2.58;1.10;;;;;;;;;;5052281;28;20460;-49
2022/04/30 11:57:27;;;;;;;1.70;1.60;;;;;;;;;;5053375;28;20171;-48
2022/04/30 11:59:55;;;;;;;1.67;1.40;;;;;;;;;;5056444;28;20524;-44
2022/04/30 12:02:21;;;;;;;6.38;2.03;;;;;;;;;;5056668;28;20040;-45
2022/04/30 12:04:47;;;;;;;3.40;1.60;;;;;;;;;;5056416;28;20028;-43
2022/04/30 12:07:13;;;;;;;2.15;1.98;;;;;;;;;;5056500;28;20025;-51
2022/04/30 12:09:46;;;;;;;2.42;1.90;;;;;;;;;;5056233;28;20024;-48
2022/04/30 12:12:19;;;;;;;3.83;2.80;;;;;;;;;;5056215;28;20103;-45
2022/04/30 12:15:03;;;;;;;1.88;1.63;;;;;;;;;;5056501;28;20052;-51
2022/04/30 12:17:32;;;;;;;2.38;2.10;;;;;;;;;;5056436;28;20029;-46
2022/04/30 12:25:48;;;;;;;1.48;1.38;;;;;;;;;;5055952;28;20048;-50
2022/04/30 12:28:14;;;;;;;4.10;1.50;;;;;;;;;;5056231;28;20060;-49
2022/04/30 12:31:09;;;;;;;3.15;2.33;;;;;;;;;;5056178;28;20048;-46
2022/04/30 12:33:45;;;;;;;4.15;2.30;;;;;;;;;;5053907;28;20057;-40
2022/04/30 12:36:12;;;;;;;2.30;1.70;;;;;;;;;;5056116;28;20025;-39
2022/04/30 12:38:37;;;;;;;1.52;1.42;;;;;;;;;;5055997;28;20025;-45
2022/04/30 12:41:06;;;;;;;1.40;1.30;;;;;;;;;;5055602;28;20025;-47
2022/04/30 12:43:33;;;;;;;2.05;1.42;;;;;;;;;;5055624;28;20032;-43
2022/04/30 12:45:58;;;;;;;1.33;1.23;;;;;;;;;;5055451;28;20060;-46
2022/04/30 12:48:23;;;;;;;1.60;1.17;;;;;;;;;;5055544;28;20052;-48
2022/04/30 12:50:49;;;;;;;2.17;1.58;;;;;;;;;;5055383;28;20044;-45
2022/04/30 12:53:14;;;;;;;1.83;1.40;;;;;;;;;;5055467;28;20524;-45
2022/04/30 12:55:41;;;;;;;1.80;1.58;;;;;;;;;;5055437;28;20029;-45
2022/04/30 12:58:08;;;;;;;0.85;0.85;;;;;;;;;;5055399;28;20028;-51
2022/04/30 13:00:34;;;;;;;1.38;1.27;;;;;;;;;;5055624;28;20029;-47
2022/04/30 13:03:00;;;;;;;1.48;1.30;;;;;;;;;;5055242;28;20113;-46
2022/04/30 13:05:27;;;;;;;2.95;1.83;;;;;;;;;;5055098;28;20110;-47
2022/04/30 13:07:53;;;;;;;4.55;1.85;;;;;;;;;;5055157;28;20461;-47
2022/04/30 13:15:47;;;;;;;1.30;1.20;;;;;;;;;;5055329;28;20031;-46
2022/04/30 13:18:13;;;;;;;1.52;1.42;;;;;;;;;;5055260;28;20025;-49
2022/04/30 13:20:38;;;;;;;1.73;1.42;;;;;;;;;;5054688;28;20033;-52
2022/04/30 13:23:04;;;;;;;1.63;1.52;;;;;;;;;;5054979;28;20024;-50
2022/04/30 13:25:30;;;;;;;2.13;1.30;;;;;;;;;;5054383;28;20033;-44
2022/04/30 13:27:56;;;;;;;1.63;1.52;;;;;;;;;;5035658;28;20473;-48
2022/04/30 13:30:23;;;;;;;1.52;1.20;;;;;;;;;;5054621;28;20021;-50
2022/04/30 13:32:49;;;;;;;1.60;1.33;;;;;;;;;;5036404;28;20027;-51
2022/04/30 13:35:15;;;;;;;1.52;1.42;;;;;;;;;;5053766;28;20083;-51
2022/04/30 13:37:41;;;;;;;2.30;1.10;;;;;;;;;;5054817;28;20032;-49
2022/04/30 13:40:16;;;;;;;2.00;1.38;;;;;;;;;;5054038;28;20389;-50
2022/04/30 13:42:42;;;;;;;1.70;1.20;;;;;;;;;;5054034;28;20074;-50
2022/04/30 13:45:09;;;;;;;1.40;1.25;;;;;;;;;;5053868;28;20457;-52
2022/04/30 13:47:35;;;;;;;1.65;1.55;;;;;;;;;;5053938;28;20025;-52
2022/04/30 13:50:01;;;;;;;0.70;0.70;;;;;;;;;;5054202;28;20417;-51
2022/04/30 13:52:27;;;;;;;1.10;1.00;;;;;;;;;;5054009;28;20112;-48
2022/04/30 13:54:52;;;;;;;2.22;1.20;;;;;;;;;;5054298;28;20025;-53
2022/04/30 13:57:21;;;;;;;2.03;1.40;;;;;;;;;;5054270;28;20033;-49
2022/04/30 13:59:46;;;;;;;0.90;0.90;;;;;;;;;;5054244;28;20056;-51
2022/04/30 14:02:12;;;;;;;1.65;0.90;;;;;;;;;;5054212;28;20061;-52
2022/04/30 14:04:38;;;;;;;0.80;0.80;;;;;;;;;;5054058;28;20362;-41
2022/04/30 14:07:04;;;;;;;0.75;0.75;;;;;;;;;;5054091;28;20028;-39
2022/04/30 14:09:30;;;;;;;1.17;1.00;;;;;;;;;;5054321;28;20400;-42
2022/04/30 14:11:56;;;;;;;3.40;1.17;;;;;;;;;;5054272;28;20025;-39
2022/04/30 14:18:15;;;;;;;0.90;0.90;;;;;;;;;;5053952;28;20032;-40
2022/04/30 14:19:51;;;;;;;1.33;1.25;;;;;;;;;;5053691;28;20021;-41
2022/04/30 14:22:18;;;;;;;1.10;1.02;;;;;;;;;;5053048;28;20017;-43
2022/04/30 14:24:44;;;;;;;1.75;1.60;;;;;;;;;;5053902;28;20106;-49
2022/04/30 14:27:09;;;;;;;2.65;1.70;;;;;;;;;;5053958;28;20464;-42
2022/04/30 14:29:35;;;;;;;1.48;1.13;;;;;;;;;;5053870;28;20017;-44
2022/04/30 14:32:00;;;;;;;1.15;0.75;;;;;;;;;;5053645;28;20021;-44
2022/04/30 14:34:26;;;;;;;0.65;0.65;;;;;;;;;;5053824;28;20477;-47
2022/04/30 14:36:52;;;;;;;1.65;1.55;;;;;;;;;;5053436;28;20036;-46
2022/04/30 14:39:17;;;;;;;0.98;0.80;;;;;;;;;;5053495;28;20021;-44
2022/04/30 14:41:44;;;;;;;0.90;0.90;;;;;;;;;;5053436;28;20023;-44
2022/04/30 14:44:10;;;;;;;0.98;0.98;;;;;;;;;;5053313;28;20457;-49
2022/04/30 14:46:36;;;;;;;1.17;1.13;;;;;;;;;;5053286;28;20021;-45
2022/04/30 14:49:02;;;;;;;1.75;1.35;;;;;;;;;;5053483;28;20021;-43
2022/04/30 14:51:28;;;;;;;2.25;1.27;;;;;;;;;;5053100;28;20037;-49
2022/04/30 14:53:53;;;;;;;1.30;1.20;;;;;;;;;;5053171;28;20522;-47
2022/04/30 14:56:19;;;;;;;1.85;1.38;;;;;;;;;;5053175;28;20032;-49
2022/04/30 14:58:45;;;;;;;1.58;1.48;;;;;;;;;;5053187;28;20261;-48
2022/04/30 15:01:10;;;;;;;3.17;2.35;;;;;;;;;;5053322;28;20074;-47
2022/04/30 15:03:35;;;;;;;1.10;1.00;;;;;;;;;;5053041;28;20048;-50
2022/04/30 15:06:01;;;;;;;1.60;1.50;;;;;;;;;;5035446;28;20154;-46
2022/04/30 15:08:26;;;;;;;1.50;1.40;;;;;;;;;;5053221;28;20472;-44
2022/04/30 15:10:52;;;;;;;1.52;1.08;;;;;;;;;;5052902;28;20028;-44
2022/04/30 15:13:18;;;;;;;3.28;1.20;;;;;;;;;;5053118;28;20161;-44
2022/04/30 15:15:43;;;;;;;1.90;1.23;;;;;;;;;;5053092;28;20468;-44
2022/04/30 15:18:09;;;;;;;5.78;1.63;;;;;;;;;;5053073;28;20074;-40
2022/04/30 15:20:34;;;;;;;4.07;1.33;;;;;;;;;;5052768;28;20052;-38
2022/04/30 15:22:59;;;;;;;1.85;1.23;;;;;;;;;;5052991;28;20021;-38
2022/04/30 15:25:25;;;;;;;1.17;1.10;;;;;;;;;;5052660;28;20033;-38
2022/04/30 15:27:51;;;;;;;1.00;0.93;;;;;;;;;;5053014;28;20029;-38
2022/04/30 15:30:17;;;;;;;1.10;1.10;;;;;;;;;;5052576;28;20033;-38
2022/04/30 15:32:42;;;;;;;1.00;1.00;;;;;;;;;;5052303;28;20033;-38